createdAt,value
2023-04-16T00:00:50.336Z,83.24
2023-04-16T00:03:18.048Z,83.30
2023-04-16T00:05:46.258Z,83.22
2023-04-16T00:08:14.320Z,82.67
2023-04-16T00:10:41.946Z,82.83
2023-04-16T00:13:09.592Z,83.21
2023-04-16T00:15:38.688Z,83.45
2023-04-16T00:18:06.314Z,83.62
2023-04-16T00:20:34.018Z,83.19
2023-04-16T00:23:01.722Z,83.04
2023-04-16T00:25:30.006Z,83.40
2023-04-16T00:27:57.666Z,83.36
2023-04-16T00:30:25.314Z,83.52
2023-04-16T00:32:54.445Z,83.66
2023-04-16T00:35:22.433Z,83.95
2023-04-16T00:37:50.077Z,83.70
2023-04-16T00:40:17.777Z,83.49
2023-04-16T00:42:46.363Z,83.97
2023-04-16T00:45:14.108Z,83.81
2023-04-16T00:47:41.983Z,84.00
2023-04-16T00:50:12.728Z,84.14
2023-04-16T00:52:41.165Z,84.12
2023-04-16T00:55:13.188Z,84.36
2023-04-16T00:57:41.243Z,84.33
2023-04-16T01:00:10.154Z,84.17
2023-04-16T01:02:38.236Z,83.95
2023-04-16T01:05:06.706Z,83.70
2023-04-16T01:07:35.866Z,84.15
2023-04-16T01:10:04.070Z,83.81
2023-04-16T01:12:32.738Z,83.42
2023-04-16T01:15:00.733Z,83.22
2023-04-16T01:17:28.616Z,83.42
2023-04-16T01:20:00.250Z,83.03
2023-04-16T01:22:29.692Z,83.28
2023-04-16T01:24:57.338Z,83.86
2023-04-16T01:27:24.968Z,83.61
2023-04-16T01:29:52.659Z,83.74
2023-04-16T01:32:20.737Z,83.76
2023-04-16T01:34:48.464Z,83.50
2023-04-16T01:37:18.977Z,83.06
2023-04-16T01:39:47.971Z,83.05
2023-04-16T01:42:15.753Z,83.84
2023-04-16T01:44:44.236Z,83.94
2023-04-16T01:47:11.862Z,83.48
2023-04-16T01:49:39.518Z,84.15
2023-04-16T01:52:08.412Z,83.96
2023-04-16T01:54:36.092Z,84.05
2023-04-16T01:57:05.341Z,84.16
2023-04-16T01:59:33.071Z,84.12
2023-04-16T02:02:04.173Z,83.52
2023-04-16T02:04:31.893Z,83.28
2023-04-16T02:07:00.092Z,83.29
2023-04-16T02:09:27.908Z,83.32
2023-04-16T02:11:55.621Z,83.12
2023-04-16T02:14:25.652Z,83.08
2023-04-16T02:16:53.322Z,83.19
2023-04-16T02:19:21.715Z,83.31
2023-04-16T02:21:49.709Z,83.60
2023-04-16T02:24:17.369Z,83.58
2023-04-16T02:26:45.333Z,83.62
2023-04-16T02:29:12.990Z,83.82
2023-04-16T02:31:42.007Z,83.33
2023-04-16T02:34:09.719Z,83.66
2023-04-16T02:36:37.668Z,84.16
2023-04-16T02:39:06.306Z,84.13
2023-04-16T02:41:33.963Z,83.86
2023-04-16T02:44:01.990Z,83.66
2023-04-16T02:46:29.637Z,84.25
2023-04-16T02:48:58.643Z,83.83
2023-04-16T02:51:26.457Z,84.04
2023-04-16T02:53:54.072Z,84.43
2023-04-16T02:56:21.704Z,83.43
2023-04-16T02:58:49.281Z,83.48
2023-04-16T03:01:18.099Z,83.57
2023-04-16T03:03:45.880Z,83.52
2023-04-16T03:06:14.876Z,83.76
2023-04-16T03:08:42.614Z,83.24
2023-04-16T03:11:10.270Z,83.74
2023-04-16T03:13:37.943Z,82.97
2023-04-16T03:16:05.947Z,82.79
2023-04-16T03:18:33.789Z,82.90
2023-04-16T03:21:01.571Z,82.67
2023-04-16T03:23:30.771Z,83.16
2023-04-16T03:25:58.622Z,83.61
2023-04-16T03:28:27.001Z,83.28
2023-04-16T03:30:54.969Z,83.35
2023-04-16T03:33:23.187Z,83.25
2023-04-16T03:35:56.974Z,83.06
2023-04-16T03:38:24.933Z,83.90
2023-04-16T03:40:54.040Z,84.53
2023-04-16T03:43:21.866Z,84.38
2023-04-16T03:45:49.687Z,84.40
2023-04-16T03:48:17.613Z,84.74
2023-04-16T03:50:47.709Z,84.45
2023-04-16T03:53:15.760Z,84.75
2023-04-16T03:55:44.099Z,84.93
2023-04-16T03:58:13.116Z,84.77
2023-04-16T04:00:43.565Z,84.77
2023-04-16T04:03:11.544Z,84.97
2023-04-16T04:05:40.995Z,84.35
2023-04-16T04:08:08.940Z,85.01
2023-04-16T04:10:37.210Z,84.90
2023-04-16T04:13:06.832Z,84.67
2023-04-16T04:15:35.984Z,84.64
2023-04-16T04:18:03.806Z,84.09
2023-04-16T04:20:31.578Z,83.89
2023-04-16T04:22:59.738Z,84.14
2023-04-16T04:25:27.752Z,83.68
2023-04-16T04:27:55.371Z,83.31
2023-04-16T04:30:23.129Z,83.01
2023-04-16T04:32:52.407Z,82.53
2023-04-16T04:35:20.429Z,82.81
2023-04-16T04:37:48.458Z,82.35
2023-04-16T04:40:16.713Z,82.45
2023-04-16T04:42:44.302Z,82.33
2023-04-16T04:45:12.615Z,82.45
2023-04-16T04:47:40.461Z,82.05
2023-04-16T04:50:11.139Z,82.06
2023-04-16T04:52:38.871Z,82.82
2023-04-16T04:55:07.193Z,82.37
2023-04-16T04:57:34.878Z,81.92
2023-04-16T05:00:04.137Z,81.83
2023-04-16T05:02:31.801Z,81.67
2023-04-16T05:04:59.564Z,81.15
2023-04-16T05:07:28.660Z,81.36
2023-04-16T05:09:56.487Z,81.50
2023-04-16T05:12:24.140Z,80.93
2023-04-16T05:14:51.815Z,81.21
2023-04-16T05:17:19.782Z,80.68
2023-04-16T05:19:47.657Z,80.80
2023-04-16T05:22:18.790Z,80.87
2023-04-16T05:24:48.063Z,80.60
2023-04-16T05:27:15.816Z,80.29
2023-04-16T05:29:43.443Z,80.08
2023-04-16T05:32:11.245Z,79.57
2023-04-16T05:34:38.902Z,80.01
2023-04-16T05:37:06.509Z,79.18
2023-04-16T05:39:34.181Z,79.52
2023-04-16T05:42:03.313Z,79.00
2023-04-16T05:44:31.009Z,79.61
2023-04-16T05:46:58.602Z,79.39
2023-04-16T05:49:28.014Z,79.12
2023-04-16T05:51:55.678Z,79.26
2023-04-16T05:54:23.555Z,79.01
2023-04-16T05:56:51.264Z,79.33
2023-04-16T05:59:20.359Z,79.73
2023-04-16T06:01:48.031Z,78.99
2023-04-16T06:04:15.714Z,78.64
2023-04-16T06:06:43.501Z,77.13
2023-04-16T06:09:11.801Z,77.39
2023-04-16T06:11:39.739Z,77.28
2023-04-16T06:14:07.454Z,76.76
2023-04-16T06:16:36.448Z,76.69
2023-04-16T06:19:04.373Z,77.20
2023-04-16T06:21:32.877Z,77.14
2023-04-16T06:24:00.685Z,77.19
2023-04-16T06:26:28.501Z,76.49
2023-04-16T06:28:56.551Z,76.25
2023-04-16T06:31:24.210Z,77.41
2023-04-16T06:33:53.194Z,77.03
2023-04-16T06:36:20.902Z,77.70
2023-04-16T06:38:48.727Z,77.20
2023-04-16T06:41:16.569Z,77.55
2023-04-16T06:43:45.127Z,76.95
2023-04-16T06:46:12.786Z,76.76
2023-04-16T06:48:40.690Z,76.51
2023-04-16T06:51:09.944Z,77.83
2023-04-16T06:53:38.738Z,76.52
2023-04-16T06:56:07.602Z,76.78
2023-04-16T06:58:35.488Z,77.13
2023-04-16T07:01:03.718Z,77.83
2023-04-16T07:03:32.552Z,77.79
2023-04-16T07:06:00.457Z,77.59
2023-04-16T07:08:29.695Z,77.38
2023-04-16T07:10:57.384Z,77.10
2023-04-16T07:13:25.868Z,77.30
2023-04-16T07:15:53.474Z,77.05
2023-04-16T07:18:21.483Z,76.58
2023-04-16T07:20:49.376Z,76.54
2023-04-16T07:23:17.310Z,76.10
2023-04-16T07:25:46.418Z,76.73
2023-04-16T07:28:16.508Z,76.67
2023-04-16T07:30:44.789Z,76.44
2023-04-16T07:33:12.934Z,76.49
2023-04-16T07:35:40.973Z,76.08
2023-04-16T07:38:09.167Z,76.42
2023-04-16T07:40:37.710Z,75.55
2023-04-16T07:43:06.852Z,76.66
2023-04-16T07:45:34.913Z,76.71
2023-04-16T07:48:02.760Z,75.96
2023-04-16T07:50:30.553Z,75.73
2023-04-16T07:52:58.323Z,74.65
2023-04-16T07:55:26.522Z,75.20
2023-04-16T07:57:54.601Z,75.13
2023-04-16T08:00:24.518Z,76.06
2023-04-16T08:02:52.520Z,76.23
2023-04-16T08:05:20.991Z,76.75
2023-04-16T08:07:49.220Z,76.63
2023-04-16T08:10:17.215Z,76.61
2023-04-16T08:12:45.063Z,76.24
2023-04-16T08:15:13.597Z,76.10
2023-04-16T08:17:42.541Z,76.58
2023-04-16T08:20:13.052Z,76.35
2023-04-16T08:22:44.158Z,76.85
2023-04-16T08:25:12.054Z,76.79
2023-04-16T08:27:39.774Z,76.36
2023-04-16T08:30:08.801Z,76.65
2023-04-16T08:32:36.630Z,76.53
2023-04-16T08:35:06.556Z,76.49
2023-04-16T08:37:34.478Z,76.07
2023-04-16T08:40:02.538Z,75.53
2023-04-16T08:42:38.258Z,75.11
2023-04-16T08:45:09.474Z,75.53
2023-04-16T08:47:37.925Z,73.65
2023-04-16T08:50:09.830Z,73.28
2023-04-16T08:52:39.542Z,74.02
2023-04-16T08:55:14.983Z,73.10
2023-04-16T08:57:58.706Z,72.51
2023-04-16T09:00:26.558Z,73.96
2023-04-16T09:02:55.745Z,73.26
2023-04-16T09:05:26.301Z,73.25
2023-04-16T09:07:54.802Z,73.67
2023-04-16T09:10:23.507Z,73.62
2023-04-16T09:12:51.238Z,74.53
2023-04-16T09:15:21.969Z,75.59
2023-04-16T09:17:49.759Z,77.74
2023-04-16T09:20:17.503Z,79.57
2023-04-16T09:22:46.857Z,80.02
2023-04-16T09:25:14.556Z,82.41
2023-04-16T09:27:45.641Z,81.58
2023-04-16T09:30:27.273Z,81.88
2023-04-16T09:33:16.460Z,83.17
2023-04-16T09:35:47.971Z,83.42
2023-04-16T09:38:17.850Z,83.93
2023-04-16T09:40:47.360Z,82.78
2023-04-16T09:43:16.318Z,83.76
2023-04-16T09:45:51.940Z,83.38
2023-04-16T09:48:30.440Z,84.09
2023-04-16T09:50:58.775Z,83.40
2023-04-16T09:53:29.113Z,84.54
2023-04-16T09:55:57.900Z,84.05
2023-04-16T09:58:26.075Z,84.22
2023-04-16T10:00:57.559Z,84.28
2023-04-16T10:03:31.639Z,83.76
2023-04-16T10:06:02.265Z,85.10
2023-04-16T10:08:31.402Z,85.23
2023-04-16T10:10:59.250Z,84.45
2023-04-16T10:13:27.873Z,85.51
2023-04-16T10:15:57.141Z,86.78
2023-04-16T10:18:25.215Z,85.29
2023-04-16T10:20:53.247Z,85.95
2023-04-16T10:23:21.472Z,85.74
2023-04-16T10:25:51.467Z,85.53
2023-04-16T10:28:19.976Z,85.85
2023-04-16T10:30:53.501Z,85.68
2023-04-16T10:33:22.898Z,85.54
2023-04-16T10:36:01.393Z,86.36
2023-04-16T10:38:35.232Z,86.42
2023-04-16T10:41:07.045Z,86.15
2023-04-16T10:43:39.590Z,86.65
2023-04-16T10:46:22.083Z,86.16
2023-04-16T10:48:51.356Z,86.03
2023-04-16T10:51:27.683Z,86.12
2023-04-16T10:53:56.221Z,86.40
2023-04-16T10:56:27.078Z,85.40
2023-04-16T10:58:56.719Z,85.68
2023-04-16T11:01:33.370Z,85.66
2023-04-16T11:04:02.992Z,85.57
2023-04-16T11:06:31.930Z,86.36
2023-04-16T11:08:59.655Z,86.55
2023-04-16T11:11:38.269Z,86.14
2023-04-16T11:14:06.597Z,85.80
2023-04-16T11:16:34.381Z,85.79
2023-04-16T11:19:02.334Z,85.02
2023-04-16T11:21:31.728Z,85.60
2023-04-16T11:23:59.628Z,85.62
2023-04-16T11:26:30.774Z,84.64
2023-04-16T11:29:00.168Z,84.97
2023-04-16T11:31:28.184Z,84.78
2023-04-16T11:33:57.517Z,84.87
2023-04-16T11:36:27.785Z,84.33
2023-04-16T11:39:03.666Z,84.72
2023-04-16T11:41:32.999Z,84.64
2023-04-16T11:44:00.794Z,83.73
2023-04-16T11:46:39.048Z,84.48
2023-04-16T11:49:06.679Z,84.50
2023-04-16T11:51:34.311Z,84.18
2023-04-16T11:54:02.034Z,84.33
2023-04-16T11:56:30.749Z,84.43
2023-04-16T11:59:13.458Z,84.15
2023-04-16T12:01:42.657Z,84.45
2023-04-16T12:04:10.651Z,84.33
2023-04-16T12:06:38.507Z,83.64
2023-04-16T12:09:24.187Z,83.73
2023-04-16T12:11:52.013Z,83.88
2023-04-16T12:14:21.362Z,83.94
2023-04-16T12:16:49.129Z,82.85
2023-04-16T12:19:17.291Z,82.38
2023-04-16T12:21:47.176Z,82.18
2023-04-16T12:24:17.114Z,82.55
2023-04-16T12:26:47.267Z,82.07
2023-04-16T12:29:21.700Z,82.22
2023-04-16T12:31:50.868Z,82.09
2023-04-16T12:34:19.290Z,81.73
2023-04-16T12:36:48.025Z,81.81
2023-04-16T12:39:17.080Z,81.24
2023-04-16T12:41:45.128Z,80.37
2023-04-16T12:44:17.962Z,81.37
2023-04-16T12:46:47.308Z,80.70
2023-04-16T12:49:15.098Z,80.70
2023-04-16T12:51:42.794Z,80.45
2023-04-16T12:54:10.569Z,79.85
2023-04-16T12:56:38.537Z,80.31
2023-04-16T12:59:06.507Z,79.78
2023-04-16T13:01:36.170Z,79.48
2023-04-16T13:04:05.915Z,79.06
2023-04-16T13:06:33.756Z,78.92
2023-04-16T13:09:01.768Z,78.30
2023-04-16T13:11:29.816Z,78.17
2023-04-16T13:13:57.519Z,78.14
2023-04-16T13:16:26.128Z,78.58
2023-04-16T13:18:53.847Z,78.03
2023-04-16T13:21:23.853Z,77.77
2023-04-16T13:23:51.599Z,77.81
2023-04-16T13:26:19.248Z,78.09
2023-04-16T13:28:47.025Z,77.62
2023-04-16T13:31:15.838Z,78.03
2023-04-16T13:33:44.171Z,77.99
2023-04-16T13:36:12.144Z,78.20
2023-04-16T13:38:42.181Z,78.97
2023-04-16T13:41:09.849Z,78.46
2023-04-16T13:43:38.423Z,78.28
2023-04-16T13:46:06.200Z,78.28
2023-04-16T13:48:33.961Z,78.91
2023-04-16T13:51:01.585Z,78.97
2023-04-16T13:53:29.293Z,78.92
2023-04-16T13:55:58.437Z,79.30
2023-04-16T13:58:27.114Z,79.63
2023-04-16T14:00:54.777Z,79.74
2023-04-16T14:03:22.965Z,79.95
2023-04-16T14:05:50.710Z,80.12
2023-04-16T14:08:18.380Z,80.14
2023-04-16T14:10:46.106Z,80.53
2023-04-16T14:13:15.231Z,80.59
2023-04-16T14:15:42.952Z,80.19
2023-04-16T14:18:10.682Z,80.49
2023-04-16T14:20:39.884Z,81.50
2023-04-16T14:23:07.895Z,80.90
2023-04-16T14:25:35.826Z,82.10
2023-04-16T14:28:03.451Z,82.98
2023-04-16T14:30:32.499Z,83.35
2023-04-16T14:33:00.157Z,83.14
2023-04-16T14:35:27.871Z,83.51
2023-04-16T14:37:55.550Z,84.54
2023-04-16T14:40:23.276Z,84.62
2023-04-16T14:42:50.904Z,84.23
2023-04-16T14:45:18.765Z,83.86
2023-04-16T14:47:48.159Z,83.33
2023-04-16T14:50:16.032Z,83.80
2023-04-16T14:52:43.929Z,83.14
2023-04-16T14:55:11.590Z,83.35
2023-04-16T14:57:39.407Z,83.78
2023-04-16T15:00:09.847Z,83.06
2023-04-16T15:02:37.833Z,82.96
2023-04-16T15:05:10.414Z,82.73
2023-04-16T15:07:38.351Z,82.43
2023-04-16T15:10:07.163Z,82.44
2023-04-16T15:12:34.821Z,81.25
2023-04-16T15:15:02.535Z,78.94
2023-04-16T15:17:30.298Z,78.75
2023-04-16T15:19:58.017Z,78.42
2023-04-16T15:22:27.349Z,77.16
2023-04-16T15:24:55.072Z,76.43
2023-04-16T15:27:25.995Z,75.80
2023-04-16T15:29:54.031Z,75.34
2023-04-16T15:32:21.849Z,76.58
2023-04-16T15:34:49.647Z,76.44
2023-04-16T15:37:17.404Z,76.86
2023-04-16T15:39:46.422Z,76.11
2023-04-16T15:42:14.558Z,75.85
2023-04-16T15:44:42.198Z,75.74
2023-04-16T15:47:10.172Z,76.03
2023-04-16T15:49:37.979Z,75.35
2023-04-16T15:52:05.902Z,74.50
2023-04-16T15:54:33.709Z,74.74
2023-04-16T15:57:02.714Z,74.21
2023-04-16T15:59:32.657Z,74.00
2023-04-16T16:02:01.414Z,73.50
2023-04-16T16:04:29.663Z,73.45
2023-04-16T16:06:57.969Z,72.28
2023-04-16T16:09:26.937Z,71.91
2023-04-16T16:11:55.203Z,70.94
2023-04-16T16:14:24.172Z,71.18
2023-04-16T16:16:51.873Z,70.43
2023-04-16T16:19:19.539Z,69.97
2023-04-16T16:21:47.463Z,70.38
2023-04-16T16:24:15.489Z,69.08
2023-04-16T16:26:43.479Z,69.22
2023-04-16T16:29:11.832Z,70.05
2023-04-16T16:31:41.150Z,68.09
2023-04-16T16:34:11.124Z,68.83
2023-04-16T16:36:47.265Z,68.35
2023-04-16T16:39:15.230Z,67.53
2023-04-16T16:41:43.120Z,68.07
2023-04-16T16:44:10.887Z,68.04
2023-04-16T16:46:38.763Z,67.35
2023-04-16T16:49:09.822Z,67.52
2023-04-16T16:51:38.878Z,67.20
2023-04-16T16:54:07.884Z,66.35
2023-04-16T16:56:35.812Z,66.24
2023-04-16T16:59:04.027Z,66.29
2023-04-16T17:01:33.754Z,66.25
2023-04-16T17:04:01.676Z,66.07
2023-04-16T17:06:31.640Z,65.96
2023-04-16T17:08:59.576Z,66.19
2023-04-16T17:11:27.497Z,65.76
2023-04-16T17:13:55.336Z,65.75
2023-04-16T17:16:23.910Z,65.78
2023-04-16T17:18:51.834Z,65.70
2023-04-16T17:21:19.539Z,65.54
2023-04-16T17:23:48.571Z,65.45
2023-04-16T17:26:16.492Z,65.83
2023-04-16T17:28:44.558Z,66.86
2023-04-16T17:31:12.805Z,67.13
2023-04-16T17:33:40.666Z,67.81
2023-04-16T17:36:09.260Z,67.60
2023-04-16T17:38:37.246Z,67.36
2023-04-16T17:41:06.408Z,67.76
2023-04-16T17:43:34.158Z,67.49
2023-04-16T17:46:01.948Z,68.08
2023-04-16T17:48:29.781Z,67.74
2023-04-16T17:50:57.514Z,68.25
2023-04-16T17:53:25.813Z,68.44
2023-04-16T17:55:56.499Z,68.19
2023-04-16T17:58:27.008Z,68.61
2023-04-16T18:00:54.757Z,68.90
2023-04-16T18:03:22.721Z,69.23
2023-04-16T18:05:50.491Z,68.90
2023-04-16T18:08:18.259Z,68.84
2023-04-16T18:10:45.957Z,69.05
2023-04-16T18:13:13.830Z,69.11
2023-04-16T18:15:43.559Z,69.17
2023-04-16T18:18:11.591Z,69.42
2023-04-16T18:20:39.418Z,69.88
2023-04-16T18:23:07.256Z,69.92
2023-04-16T18:25:35.456Z,70.20
2023-04-16T18:28:03.694Z,70.23
2023-04-16T18:30:31.892Z,70.30
2023-04-16T18:33:26.322Z,70.11
2023-04-16T18:35:49.853Z,70.96
2023-04-16T18:38:17.738Z,71.64
2023-04-16T18:40:46.944Z,71.67
2023-04-16T18:43:14.774Z,72.82
2023-04-16T18:45:42.545Z,71.93
2023-04-16T18:48:11.712Z,71.92
2023-04-16T18:50:39.383Z,71.55
2023-04-16T18:53:07.166Z,71.34
2023-04-16T18:55:34.932Z,71.63
2023-04-16T18:58:02.745Z,72.00
2023-04-16T19:00:30.631Z,72.25
2023-04-16T19:02:58.607Z,72.33
2023-04-16T19:05:27.867Z,72.21
2023-04-16T19:07:55.668Z,72.22
2023-04-16T19:10:23.501Z,72.08
2023-04-16T19:12:51.909Z,72.10
2023-04-16T19:15:20.156Z,72.36
2023-04-16T19:17:48.135Z,72.42
2023-04-16T19:20:16.082Z,72.36
2023-04-16T19:22:45.844Z,72.04
2023-04-16T19:25:13.631Z,72.61
2023-04-16T19:27:41.511Z,72.69
2023-04-16T19:30:10.467Z,72.54
2023-04-16T19:32:38.538Z,72.85
2023-04-16T19:35:07.047Z,72.74
2023-04-16T19:37:34.854Z,72.69
2023-04-16T19:40:06.166Z,72.70
2023-04-16T19:42:34.539Z,72.34
2023-04-16T19:45:03.105Z,72.65
2023-04-16T19:47:30.847Z,72.39
2023-04-16T19:49:58.565Z,72.79
2023-04-16T19:52:26.557Z,73.66
2023-04-16T19:54:54.316Z,73.90
2023-04-16T19:57:25.845Z,74.56
2023-04-16T19:59:55.100Z,74.81
2023-04-16T20:02:23.371Z,76.50
2023-04-16T20:04:53.085Z,75.25
2023-04-16T20:07:21.102Z,77.05
2023-04-16T20:09:48.819Z,76.31
2023-04-16T20:12:16.887Z,76.64
2023-04-16T20:14:47.362Z,79.24
2023-04-16T20:17:19.596Z,77.48
2023-04-16T20:19:49.620Z,77.26
2023-04-16T20:22:18.623Z,77.20
2023-04-16T20:24:48.295Z,76.96
2023-04-16T20:27:16.915Z,77.38
2023-04-16T20:29:44.774Z,77.52
2023-04-16T20:32:14.096Z,78.36
2023-04-16T20:34:43.014Z,79.36
2023-04-16T20:37:10.713Z,79.10
2023-04-16T20:39:40.300Z,77.42
2023-04-16T20:42:10.148Z,77.11
2023-04-16T20:44:41.249Z,76.44
2023-04-16T20:47:09.436Z,77.31
2023-04-16T20:49:40.260Z,77.34
2023-04-16T20:52:08.020Z,78.10
2023-04-16T20:54:35.792Z,80.08
2023-04-16T20:57:04.846Z,78.83
2023-04-16T20:59:33.045Z,76.46
2023-04-16T21:02:01.123Z,76.89
2023-04-16T21:04:29.150Z,76.24
2023-04-16T21:06:58.540Z,75.41
2023-04-16T21:09:26.484Z,75.15
2023-04-16T21:11:54.304Z,76.14
2023-04-16T21:14:22.151Z,77.29
2023-04-16T21:16:49.969Z,77.51
2023-04-16T21:19:17.665Z,76.50
2023-04-16T21:21:45.461Z,77.29
2023-04-16T21:24:14.667Z,77.31
2023-04-16T21:26:42.772Z,77.57
2023-04-16T21:29:11.156Z,76.76
2023-04-16T21:31:39.279Z,77.20
2023-04-16T21:34:07.327Z,77.25
2023-04-16T21:36:35.172Z,77.33
2023-04-16T21:39:02.847Z,78.74
2023-04-16T21:41:31.838Z,78.93
2023-04-16T21:43:59.699Z,79.04
2023-04-16T21:46:27.794Z,79.55
2023-04-16T21:48:55.507Z,80.14
2023-04-16T21:51:28.970Z,80.86
2023-04-16T21:53:57.126Z,81.54
2023-04-16T21:56:24.980Z,81.68
2023-04-16T21:58:54.065Z,81.57
2023-04-16T22:01:21.752Z,81.34
2023-04-16T22:03:52.041Z,81.11
2023-04-16T22:06:20.375Z,81.34
2023-04-16T22:08:49.719Z,81.24
2023-04-16T22:11:17.437Z,80.34
2023-04-16T22:13:46.247Z,80.69
2023-04-16T22:16:15.617Z,80.69
2023-04-16T22:18:43.766Z,81.23
2023-04-16T22:21:11.593Z,80.99
2023-04-16T22:23:39.256Z,80.11
2023-04-16T22:26:06.916Z,80.59
2023-04-16T22:28:34.565Z,80.25
2023-04-16T22:31:02.261Z,80.78
2023-04-16T22:33:31.525Z,79.92
2023-04-16T22:36:00.431Z,80.47
2023-04-16T22:38:28.046Z,80.65
2023-04-16T22:40:55.763Z,82.16
2023-04-16T22:43:23.554Z,82.50
2023-04-16T22:45:51.271Z,83.11
2023-04-16T22:48:19.083Z,83.01
2023-04-16T22:50:50.980Z,82.49
2023-04-16T22:53:18.667Z,82.83
2023-04-16T22:55:46.367Z,82.46
2023-04-16T22:58:16.974Z,83.33
2023-04-16T23:00:44.765Z,83.63
2023-04-16T23:03:12.690Z,83.21
2023-04-16T23:05:40.458Z,83.28
2023-04-16T23:08:09.640Z,83.41
2023-04-16T23:10:37.529Z,84.46
2023-04-16T23:13:05.198Z,84.20
2023-04-16T23:15:33.050Z,83.10
2023-04-16T23:18:00.994Z,82.80
2023-04-16T23:20:30.472Z,83.30
2023-04-16T23:22:58.380Z,82.62
2023-04-16T23:25:27.633Z,83.41
2023-04-16T23:27:55.356Z,83.63
2023-04-16T23:30:23.075Z,84.22
2023-04-16T23:32:50.759Z,83.53
2023-04-16T23:35:22.713Z,83.84
2023-04-16T23:37:50.783Z,84.23
2023-04-16T23:40:18.518Z,83.77
2023-04-16T23:42:47.610Z,84.25
2023-04-16T23:45:15.255Z,83.77
2023-04-16T23:47:43.000Z,85.64
2023-04-16T23:50:11.136Z,84.24
2023-04-16T23:52:39.034Z,84.44
2023-04-16T23:55:07.045Z,85.13
2023-04-16T23:57:34.846Z,84.39
